JA4149 RJFK-RJFK

Flight info

Callsign JA4149
Flight time 0h 20m
Altitude 4000
Route TGL
Aircraft C172/L-SDE3/L

Departure

Time 2026-05-08 13:40
Airport Kagoshima Airport (RJFK)

Arrival

Time 2026-05-08 14:00
Airport Kagoshima Airport (RJFK)
Time Latitude Longitude Altitude Speed Heading
2026-05-08 13:14 31.79244 130.72357 866 ft 0 kts 330°
2026-05-08 13:16 31.79285 130.72350 866 ft 3 kts 50°
2026-05-08 13:17 31.79297 130.72366 866 ft 8 kts 49°
2026-05-08 13:17 31.79279 130.72429 864 ft 16 kts 152°
2026-05-08 13:18 31.79206 130.72481 861 ft 0 kts 150°
2026-05-08 13:21 31.79162 130.72510 860 ft 18 kts 150°
2026-05-08 13:21 31.79124 130.72542 858 ft 0 kts 126°
2026-05-08 13:25 31.79126 130.72621 857 ft 4 kts 59°
2026-05-08 13:26 31.79130 130.72630 857 ft 0 kts 62°
2026-05-08 13:28 31.79138 130.72646 857 ft 0 kts 63°
2026-05-08 13:29 31.79140 130.72652 857 ft 2 kts 62°
2026-05-08 13:37 31.79175 130.72687 857 ft 19 kts 18°
2026-05-08 13:37 31.79251 130.72675 858 ft 0 kts 329°
2026-05-08 13:37 31.79267 130.72664 859 ft 7 kts 332°
2026-05-08 13:38 31.79304 130.72641 860 ft 0 kts 329°
2026-05-08 13:38 31.79306 130.72639 860 ft 6 kts 328°
2026-05-08 13:38 31.79419 130.72563 864 ft 44 kts 329°
2026-05-08 13:39 31.79683 130.72380 924 ft 63 kts 321°
2026-05-08 13:39 31.80022 130.72154 1047 ft 69 kts 325°
2026-05-08 13:39 31.80265 130.72003 1152 ft 70 kts 322°
2026-05-08 13:39 31.80737 130.71674 1318 ft 75 kts 319°
2026-05-08 13:40 31.81109 130.71393 1467 ft 77 kts 322°
2026-05-08 13:40 31.81531 130.71133 1639 ft 78 kts 332°
2026-05-08 13:40 31.82001 130.71208 1758 ft 91 kts 25°
2026-05-08 13:40 31.82334 130.71664 1846 ft 101 kts 59°
2026-05-08 13:41 31.82575 130.72279 1890 ft 108 kts 63°
2026-05-08 13:41 31.82715 130.72900 1888 ft 110 kts 91°
2026-05-08 13:41 31.82465 130.73534 1879 ft 107 kts 142°
2026-05-08 13:41 31.81982 130.73946 1915 ft 104 kts 150°
2026-05-08 13:42 31.81493 130.74353 1950 ft 104 kts 146°
2026-05-08 13:42 31.81227 130.75005 1973 ft 108 kts 92°
2026-05-08 13:42 31.81435 130.75548 1976 ft 102 kts 34°
2026-05-08 13:42 31.81876 130.75658 1935 ft 94 kts 337°
2026-05-08 13:43 31.82134 130.75389 1929 ft 86 kts 289°
2026-05-08 13:43 31.82132 130.74950 1901 ft 88 kts 253°
2026-05-08 13:43 31.81939 130.74591 1864 ft 93 kts 226°
2026-05-08 13:43 31.81553 130.74438 1815 ft 102 kts 184°
2026-05-08 13:44 31.81214 130.74577 1782 ft 109 kts 150°
2026-05-08 13:44 31.80977 130.75024 1791 ft 110 kts 98°
2026-05-08 13:44 31.81127 130.75583 1822 ft 104 kts 47°
2026-05-08 13:44 31.81485 130.75859 1821 ft 99 kts
2026-05-08 13:45 31.81909 130.75777 1817 ft 91 kts 322°
2026-05-08 13:45 31.82124 130.75336 1809 ft 87 kts 270°
2026-05-08 13:45 31.81976 130.74947 1782 ft 93 kts 228°
2026-05-08 13:45 31.81682 130.74786 1724 ft 104 kts 193°
2026-05-08 13:46 31.81286 130.74908 1815 ft 101 kts 154°
2026-05-08 13:46 31.80991 130.75314 1847 ft 106 kts 107°
2026-05-08 13:46 31.81073 130.75816 1809 ft 110 kts 53°
2026-05-08 13:46 31.81468 130.76112 1810 ft 102 kts
2026-05-08 13:47 31.81891 130.75995 1834 ft 93 kts 324°
2026-05-08 13:47 31.82158 130.75690 1836 ft 90 kts 294°
2026-05-08 13:47 31.82160 130.75261 1847 ft 90 kts 246°
2026-05-08 13:47 31.81827 130.74947 1841 ft 98 kts 203°
2026-05-08 13:48 31.81337 130.74904 1832 ft 103 kts 186°
2026-05-08 13:48 31.80914 130.75061 1846 ft 108 kts 154°
2026-05-08 13:48 31.80527 130.75392 1894 ft 104 kts 152°
2026-05-08 13:48 31.80111 130.75714 1903 ft 107 kts 152°
2026-05-08 13:49 31.79530 130.76155 1919 ft 108 kts 155°
2026-05-08 13:49 31.78906 130.76567 1918 ft 110 kts 156°
2026-05-08 13:49 31.78520 130.76975 1916 ft 115 kts 128°
2026-05-08 13:49 31.78382 130.77438 1915 ft 117 kts 96°
2026-05-08 13:50 31.78497 130.78023 1869 ft 119 kts 51°
2026-05-08 13:50 31.78968 130.78258 1949 ft 98 kts 341°
2026-05-08 13:50 31.79326 130.77911 1920 ft 94 kts 288°
2026-05-08 13:50 31.79297 130.77449 1853 ft 101 kts 249°
2026-05-08 13:51 31.78969 130.77068 1785 ft 110 kts 204°
2026-05-08 13:51 31.78510 130.77052 1768 ft 115 kts 168°
2026-05-08 13:51 31.78037 130.77406 1775 ft 117 kts 140°
2026-05-08 13:51 31.77836 130.77832 1766 ft 117 kts 102°
2026-05-08 13:52 31.77908 130.78304 1794 ft 111 kts 55°
2026-05-08 13:52 31.78297 130.78654 1800 ft 103 kts
2026-05-08 13:52 31.78776 130.78488 1735 ft 99 kts 314°
2026-05-08 13:52 31.78944 130.77943 1750 ft 93 kts 259°
2026-05-08 13:53 31.78721 130.77460 1714 ft 101 kts 231°
2026-05-08 13:53 31.78360 130.77239 1693 ft 107 kts 193°
2026-05-08 13:53 31.77930 130.77397 1679 ft 114 kts 143°
2026-05-08 13:53 31.77696 130.77925 1647 ft 119 kts 100°
2026-05-08 13:54 31.77742 130.78398 1637 ft 117 kts 66°
2026-05-08 13:54 31.77983 130.78764 1697 ft 105 kts 29°
2026-05-08 13:54 31.78410 130.78851 1762 ft 90 kts 336°
2026-05-08 13:54 31.78644 130.78653 1769 ft 85 kts 300°
2026-05-08 13:55 31.78706 130.78293 1814 ft 81 kts 261°
2026-05-08 13:55 31.78514 130.77942 1799 ft 89 kts 221°
2026-05-08 13:55 31.77762 130.78171 1822 ft 108 kts 121°
2026-05-08 13:56 31.77782 130.78766 1805 ft 110 kts 56°
2026-05-08 13:56 31.78162 130.79088 1788 ft 104 kts
2026-05-08 13:56 31.78594 130.78912 1745 ft 93 kts 305°
2026-05-08 13:56 31.78701 130.78465 1687 ft 91 kts 264°
2026-05-08 13:57 31.78544 130.77991 1659 ft 94 kts 240°
2026-05-08 13:57 31.78162 130.77623 1632 ft 99 kts 202°
2026-05-08 13:57 31.77781 130.77617 1637 ft 101 kts 175°
2026-05-08 13:57 31.77061 130.77324 1578 ft 91 kts 240°
2026-05-08 13:58 31.76850 130.76758 1605 ft 87 kts 259°
2026-05-08 13:58 31.76882 130.76173 1609 ft 89 kts 282°
2026-05-08 13:58 31.77029 130.75565 1570 ft 91 kts 283°
2026-05-08 13:58 31.77169 130.74960 1546 ft 91 kts 285°
2026-05-08 13:59 31.77398 130.74315 1517 ft 94 kts 297°
2026-05-08 13:59 31.77647 130.73909 1509 ft 95 kts 306°
2026-05-08 13:59 31.78011 130.73505 1404 ft 98 kts 320°
2026-05-08 13:59 31.78503 130.73216 1210 ft 89 kts 328°
2026-05-08 14:00 31.78908 130.72926 1051 ft 74 kts 316°
2026-05-08 14:00 31.79247 130.72684 904 ft 63 kts 320°
2026-05-08 14:00 31.79536 130.72482 867 ft 38 kts 327°
2026-05-08 14:00 31.79791 130.72308 879 ft 63 kts 322°
2026-05-08 14:01 31.80168 130.72066 980 ft 74 kts 325°
2026-05-08 14:01 31.80596 130.71796 1178 ft 73 kts 326°
2026-05-08 14:01 31.81014 130.71498 1333 ft 76 kts 319°
2026-05-08 14:01 31.81401 130.71220 1552 ft 72 kts 330°
2026-05-08 14:02 31.81855 130.71204 1652 ft 86 kts
2026-05-08 14:02 31.82269 130.71573 1745 ft 99 kts 55°
2026-05-08 14:02 31.82514 130.72174 1868 ft 103 kts 62°
2026-05-08 14:02 31.82721 130.72778 1942 ft 107 kts 76°
2026-05-08 14:03 31.82648 130.73450 1898 ft 110 kts 121°
2026-05-08 14:03 31.82247 130.73947 1899 ft 105 kts 147°
2026-05-08 14:03 31.81740 130.74382 1925 ft 107 kts 150°
2026-05-08 14:03 31.81189 130.74832 1939 ft 108 kts 150°
2026-05-08 14:04 31.80638 130.75291 1998 ft 107 kts 149°
2026-05-08 14:04 31.80129 130.75722 2019 ft 108 kts 150°
2026-05-08 14:04 31.79597 130.76173 2042 ft 109 kts 150°
2026-05-08 14:04 31.79060 130.76625 2016 ft 113 kts 149°
2026-05-08 14:05 31.78452 130.77155 2000 ft 115 kts 140°
2026-05-08 14:05 31.78194 130.77922 1990 ft 113 kts 87°
2026-05-08 14:05 31.78439 130.78476 1937 ft 108 kts 33°
2026-05-08 14:05 31.78917 130.78622 1869 ft 101 kts 343°
2026-05-08 14:06 31.79254 130.78291 1786 ft 97 kts 291°
2026-05-08 14:06 31.79250 130.77782 1774 ft 94 kts 248°
2026-05-08 14:06 31.78869 130.77330 1758 ft 97 kts 215°
2026-05-08 14:06 31.78383 130.77243 1729 ft 104 kts 176°
2026-05-08 14:07 31.78080 130.77437 1783 ft 104 kts 138°
2026-05-08 14:07 31.77942 130.77925 1762 ft 110 kts 83°
2026-05-08 14:07 31.78291 130.78448 1773 ft 101 kts 12°
2026-05-08 14:07 31.78718 130.78375 1801 ft 89 kts 316°
2026-05-08 14:08 31.78881 130.77916 1772 ft 90 kts 266°
2026-05-08 14:08 31.78842 130.77454 1720 ft 91 kts 264°
2026-05-08 14:08 31.78770 130.76955 1601 ft 96 kts 258°
2026-05-08 14:08 31.78518 130.76367 1584 ft 94 kts 235°
2026-05-08 14:09 31.78177 130.75885 1547 ft 92 kts 239°
2026-05-08 14:09 31.77908 130.75331 1516 ft 90 kts 246°
2026-05-08 14:09 31.77775 130.74736 1482 ft 88 kts 268°
2026-05-08 14:09 31.77875 130.74135 1468 ft 87 kts 290°
2026-05-08 14:10 31.78108 130.73631 1316 ft 84 kts 302°
2026-05-08 14:10 31.78424 130.73267 1230 ft 83 kts 321°
2026-05-08 14:10 31.78827 130.72996 1123 ft 79 kts 324°
2026-05-08 14:10 31.79223 130.72711 1014 ft 67 kts 320°
2026-05-08 14:11 31.79610 130.72438 887 ft 56 kts 322°
2026-05-08 14:11 31.79904 130.72246 880 ft 33 kts 324°
2026-05-08 14:11 31.80011 130.72084 885 ft 20 kts 259°
2026-05-08 14:11 31.79994 130.72035 886 ft 0 kts 239°
2026-05-08 14:12 31.79978 130.72009 886 ft 13 kts 221°
2026-05-08 14:12 31.79887 130.72020 886 ft 25 kts 151°
2026-05-08 14:12 31.79732 130.72125 881 ft 41 kts 157°
2026-05-08 14:12 31.79547 130.72249 874 ft 36 kts 154°
2026-05-08 14:13 31.79505 130.72282 872 ft 4 kts 165°
2026-05-08 14:13 31.79442 130.72316 869 ft 18 kts 150°
2026-05-08 14:13 31.79345 130.72378 866 ft 19 kts 158°
2026-05-08 14:13 31.79273 130.72348 866 ft 7 kts 172°
2026-05-08 14:14 31.79261 130.72356 866 ft 0 kts 292°